Time;durP1;ratioP1;P1;durP2;ratioP2;P2;SDS_P1;SDS_P2;PMS_P1;PMS_P2;Temp;Humidity;BMP_temperature;BMP_pressure;BME280_temperature;BME280_humidity;BME280_pressure;Samples;Min_cycle;Max_cycle;Signal;HPM_P1;HPM_P2
2022/03/05 00:01:56;;;;;;;10.87;4.93;;;;;;;;;;10620866;27;20030;-62
2022/03/05 00:06:56;;;;;;;8.03;4.70;;;;;;;;;;10621065;27;20435;-62
2022/03/05 00:11:57;;;;;;;11.03;5.27;;;;;;;;;;10620482;27;20051;-62
2022/03/05 00:16:57;;;;;;;6.85;5.28;;;;;;;;;;10620102;27;20088;-63
2022/03/05 00:22:01;;;;;;;11.13;5.23;;;;;;;;;;10619942;27;20388;-62
2022/03/05 00:27:04;;;;;;;10.15;5.22;;;;;;;;;;10601527;27;20454;-62
2022/03/05 00:32:04;;;;;;;10.05;5.32;;;;;;;;;;10620132;27;20262;-62
2022/03/05 00:37:05;;;;;;;10.57;4.97;;;;;;;;;;10615978;27;20346;-62
2022/03/05 00:42:05;;;;;;;8.98;5.22;;;;;;;;;;10616663;27;20542;-62
2022/03/05 00:47:06;;;;;;;10.18;5.30;;;;;;;;;;10619185;27;20450;-62
2022/03/05 00:52:06;;;;;;;10.13;5.75;;;;;;;;;;10617370;27;20023;-62
2022/03/05 00:57:07;;;;;;;11.47;4.50;;;;;;;;;;10615994;27;20389;-61
2022/03/05 01:02:08;;;;;;;8.52;5.32;;;;;;;;;;10615824;27;20027;-61
2022/03/05 01:07:09;;;;;;;10.00;5.28;;;;;;;;;;10616372;27;20019;-63
2022/03/05 01:12:10;;;;;;;20.00;4.95;;;;;;;;;;10616948;27;20019;-63
2022/03/05 01:17:10;;;;;;;9.52;4.70;;;;;;;;;;10616720;27;20033;-63
2022/03/05 01:22:11;;;;;;;8.65;5.00;;;;;;;;;;10617057;27;20265;-62
2022/03/05 01:27:11;;;;;;;10.73;5.20;;;;;;;;;;10618300;27;20052;-63
2022/03/05 01:32:12;;;;;;;13.63;4.40;;;;;;;;;;10618874;27;20039;-63
2022/03/05 01:37:12;;;;;;;8.30;5.07;;;;;;;;;;10617804;27;20081;-64
2022/03/05 01:42:12;;;;;;;19.23;4.80;;;;;;;;;;10611053;28;20539;-63
2022/03/05 01:47:13;;;;;;;8.77;5.37;;;;;;;;;;10617762;27;20035;-63
2022/03/05 01:52:13;;;;;;;8.13;4.78;;;;;;;;;;10625174;27;20027;-63
2022/03/05 01:57:14;;;;;;;12.73;5.05;;;;;;;;;;10626346;27;20129;-63
2022/03/05 02:02:15;;;;;;;7.60;4.57;;;;;;;;;;10625893;27;20034;-63
2022/03/05 02:07:15;;;;;;;8.90;5.28;;;;;;;;;;10626030;27;20027;-63
2022/03/05 02:12:15;;;;;;;7.93;4.97;;;;;;;;;;10625664;27;20019;-62
2022/03/05 02:17:16;;;;;;;7.32;5.03;;;;;;;;;;10626279;27;20023;-62
2022/03/05 02:22:16;;;;;;;7.37;4.47;;;;;;;;;;10625283;27;20035;-62
2022/03/05 02:27:17;;;;;;;6.95;4.97;;;;;;;;;;10624893;27;21013;-62
2022/03/05 02:32:17;;;;;;;7.28;5.25;;;;;;;;;;10624968;27;20350;-63
2022/03/05 02:37:18;;;;;;;8.18;5.15;;;;;;;;;;10624830;27;20574;-63
2022/03/05 02:42:18;;;;;;;9.40;4.78;;;;;;;;;;10621113;27;20474;-61
2022/03/05 02:47:19;;;;;;;6.28;5.00;;;;;;;;;;10624106;27;20496;-62
2022/03/05 02:52:19;;;;;;;9.67;5.00;;;;;;;;;;10620919;27;20127;-62
2022/03/05 02:57:19;;;;;;;6.73;4.80;;;;;;;;;;10623543;27;20440;-62
2022/03/05 03:02:20;;;;;;;6.80;4.80;;;;;;;;;;10623421;27;20031;-62
2022/03/05 03:07:20;;;;;;;6.77;4.83;;;;;;;;;;10623273;27;20424;-62
2022/03/05 03:12:21;;;;;;;8.50;5.17;;;;;;;;;;10623202;27;20027;-62
2022/03/05 03:17:21;;;;;;;7.15;5.20;;;;;;;;;;10623883;27;20035;-62
2022/03/05 03:22:22;;;;;;;9.23;5.28;;;;;;;;;;10623188;27;20081;-62
2022/03/05 03:27:22;;;;;;;6.35;4.35;;;;;;;;;;10623064;27;20439;-62
2022/03/05 03:32:23;;;;;;;8.57;5.00;;;;;;;;;;10622548;27;20100;-62
2022/03/05 03:37:28;;;;;;;5.43;4.30;;;;;;;;;;10621817;27;20910;-63
2022/03/05 03:42:29;;;;;;;7.10;5.13;;;;;;;;;;10621996;27;20424;-62
2022/03/05 03:47:29;;;;;;;6.88;4.68;;;;;;;;;;10621689;27;20019;-62
2022/03/05 03:52:29;;;;;;;6.93;4.80;;;;;;;;;;10618023;27;20368;-62
2022/03/05 03:57:30;;;;;;;6.43;4.47;;;;;;;;;;10617804;27;20534;-62
2022/03/05 04:02:30;;;;;;;7.73;4.80;;;;;;;;;;10621071;27;20034;-63
2022/03/05 04:12:50;;;;;;;7.35;4.70;;;;;;;;;;10620450;27;20039;-62
2022/03/05 04:17:50;;;;;;;5.77;4.33;;;;;;;;;;10620708;27;20019;-62
2022/03/05 04:22:51;;;;;;;6.57;4.38;;;;;;;;;;10620351;27;20516;-62
2022/03/05 04:27:51;;;;;;;5.28;4.15;;;;;;;;;;10620059;27;20443;-61
2022/03/05 04:32:52;;;;;;;4.68;3.92;;;;;;;;;;10619981;27;20060;-63
2022/03/05 04:37:52;;;;;;;7.23;4.77;;;;;;;;;;10619551;27;20131;-63
2022/03/05 04:42:52;;;;;;;6.72;4.38;;;;;;;;;;10619463;27;20030;-63
2022/03/05 04:47:53;;;;;;;7.70;4.20;;;;;;;;;;10619953;27;20030;-62
2022/03/05 04:52:54;;;;;;;9.57;4.85;;;;;;;;;;10619714;27;20031;-62
2022/03/05 04:57:54;;;;;;;5.80;3.97;;;;;;;;;;10615716;27;20036;-62
2022/03/05 05:02:55;;;;;;;8.10;3.90;;;;;;;;;;10618581;27;20080;-62
2022/03/05 05:07:55;;;;;;;10.00;4.32;;;;;;;;;;10615464;27;20098;-62
2022/03/05 05:12:56;;;;;;;5.00;3.50;;;;;;;;;;10618851;27;20046;-63
2022/03/05 05:17:59;;;;;;;18.95;4.15;;;;;;;;;;10618314;27;20033;-63
2022/03/05 05:22:59;;;;;;;6.93;4.07;;;;;;;;;;10617916;27;20091;-63
2022/03/05 05:28:00;;;;;;;5.93;4.50;;;;;;;;;;10618051;27;20076;-63
2022/03/05 05:33:00;;;;;;;7.07;4.30;;;;;;;;;;10618512;27;21025;-63
2022/03/05 05:38:00;;;;;;;8.60;3.53;;;;;;;;;;10617854;27;20106;-63
2022/03/05 05:43:01;;;;;;;9.80;4.30;;;;;;;;;;10617880;28;20482;-62
2022/03/05 05:48:02;;;;;;;4.33;3.50;;;;;;;;;;10618081;27;20446;-62
2022/03/05 05:53:03;;;;;;;5.25;4.10;;;;;;;;;;10617471;28;20033;-62
2022/03/05 05:58:03;;;;;;;4.40;3.72;;;;;;;;;;10617864;27;20034;-63
2022/03/05 06:03:03;;;;;;;5.67;4.53;;;;;;;;;;10617293;28;20474;-61
2022/03/05 06:08:04;;;;;;;4.87;3.90;;;;;;;;;;10611371;27;20527;-65
2022/03/05 06:13:05;;;;;;;4.18;3.70;;;;;;;;;;10617215;28;20452;-63
2022/03/05 06:18:05;;;;;;;7.30;3.80;;;;;;;;;;10617550;27;20024;-63
2022/03/05 06:23:05;;;;;;;11.57;3.50;;;;;;;;;;10617482;28;20031;-63
2022/03/05 06:28:06;;;;;;;6.63;4.40;;;;;;;;;;10616694;27;20764;-63
2022/03/05 06:33:06;;;;;;;8.93;4.35;;;;;;;;;;10616508;28;20054;-64
2022/03/05 06:38:07;;;;;;;7.25;3.88;;;;;;;;;;10621271;27;20047;-66
2022/03/05 06:43:07;;;;;;;6.00;3.72;;;;;;;;;;10624232;27;20122;-65
2022/03/05 06:48:08;;;;;;;7.60;4.00;;;;;;;;;;10624098;27;20034;-66
2022/03/05 06:53:08;;;;;;;5.50;3.50;;;;;;;;;;10623867;27;20541;-62
2022/03/05 06:58:08;;;;;;;7.17;3.80;;;;;;;;;;10605062;27;20023;-63
2022/03/05 07:03:09;;;;;;;7.63;4.18;;;;;;;;;;10623404;27;20027;-62
2022/03/05 07:08:09;;;;;;;7.97;4.10;;;;;;;;;;10619936;27;20075;-62
2022/03/05 07:13:09;;;;;;;5.47;3.60;;;;;;;;;;10619989;27;20447;-66
2022/03/05 07:18:10;;;;;;;6.10;4.07;;;;;;;;;;10623330;27;20023;-64
2022/03/05 07:23:10;;;;;;;9.43;3.03;;;;;;;;;;10623170;27;20491;-63
2022/03/05 07:28:12;;;;;;;11.60;3.60;;;;;;;;;;10622402;27;20442;-63
2022/03/05 07:33:13;;;;;;;13.25;3.63;;;;;;;;;;10622476;27;20114;-63
2022/03/05 07:38:13;;;;;;;8.38;3.95;;;;;;;;;;10622812;27;20550;-61
2022/03/05 07:43:13;;;;;;;9.77;3.73;;;;;;;;;;10622038;27;20046;-65
2022/03/05 07:48:14;;;;;;;6.57;3.83;;;;;;;;;;10621514;27;20899;-65
2022/03/05 07:53:15;;;;;;;7.57;4.22;;;;;;;;;;10621592;27;20987;-65
2022/03/05 07:58:15;;;;;;;25.80;12.80;;;;;;;;;;10621228;27;20087;-66
2022/03/05 08:03:16;;;;;;;18.77;8.57;;;;;;;;;;10620769;27;20034;-64
2022/03/05 08:08:16;;;;;;;14.07;6.88;;;;;;;;;;10619823;27;20450;-65
2022/03/05 08:13:17;;;;;;;19.90;7.70;;;;;;;;;;10617007;27;20027;-66
2022/03/05 08:18:17;;;;;;;22.70;7.73;;;;;;;;;;10616791;27;20106;-66
2022/03/05 08:23:17;;;;;;;19.63;7.47;;;;;;;;;;10619624;27;20447;-65
2022/03/05 08:28:20;;;;;;;24.33;8.10;;;;;;;;;;10619157;27;20439;-65
2022/03/05 08:33:21;;;;;;;21.83;8.32;;;;;;;;;;10618769;27;20027;-66
2022/03/05 08:38:22;;;;;;;25.63;8.38;;;;;;;;;;10618566;27;20403;-65
2022/03/05 08:43:22;;;;;;;31.85;8.25;;;;;;;;;;10619840;27;20020;-65
2022/03/05 08:48:22;;;;;;;25.37;7.23;;;;;;;;;;10618690;27;20394;-66
2022/03/05 08:53:23;;;;;;;25.90;8.80;;;;;;;;;;10619556;27;20536;-65
2022/03/05 08:58:25;;;;;;;26.80;7.82;;;;;;;;;;10617307;27;20833;-65
2022/03/05 09:03:26;;;;;;;16.20;6.93;;;;;;;;;;10618149;27;20030;-65
2022/03/05 09:08:26;;;;;;;18.88;7.72;;;;;;;;;;10617326;27;20051;-65
2022/03/05 09:13:27;;;;;;;30.13;7.97;;;;;;;;;;10617217;27;20102;-65
2022/03/05 09:18:28;;;;;;;27.77;7.50;;;;;;;;;;10614109;27;20087;-64
2022/03/05 09:23:28;;;;;;;30.25;8.27;;;;;;;;;;10614913;27;20031;-64
2022/03/05 09:28:29;;;;;;;29.53;8.93;;;;;;;;;;10617175;27;20023;-63
2022/03/05 09:33:29;;;;;;;30.50;8.75;;;;;;;;;;10616923;27;20441;-64
2022/03/05 09:38:30;;;;;;;30.20;9.13;;;;;;;;;;10616401;27;20130;-64
2022/03/05 09:43:30;;;;;;;36.97;10.45;;;;;;;;;;10617054;28;20501;-71
2022/03/05 09:48:31;;;;;;;42.92;9.30;;;;;;;;;;10615508;27;20131;-63
2022/03/05 09:53:31;;;;;;;33.20;8.70;;;;;;;;;;10617514;28;20103;-64
2022/03/05 09:58:32;;;;;;;31.65;8.85;;;;;;;;;;10616418;27;20088;-64
2022/03/05 10:03:45;;;;;;;28.65;9.20;;;;;;;;;;10616395;28;20027;-63
2022/03/05 10:08:46;;;;;;;19.13;8.02;;;;;;;;;;10616204;27;20015;-63
2022/03/05 10:13:46;;;;;;;29.33;7.90;;;;;;;;;;10624706;27;20028;-63
2022/03/05 10:18:47;;;;;;;18.20;8.25;;;;;;;;;;10624555;27;20023;-63
2022/03/05 10:23:47;;;;;;;18.17;7.20;;;;;;;;;;10621318;27;20027;-63
2022/03/05 10:28:48;;;;;;;23.42;7.65;;;;;;;;;;10621711;27;20555;-64
2022/03/05 10:33:48;;;;;;;24.45;7.93;;;;;;;;;;10621872;27;20116;-63
2022/03/05 10:38:54;;;;;;;19.50;8.27;;;;;;;;;;10621441;27;20047;-64
2022/03/05 10:44:07;;;;;;;27.85;8.23;;;;;;;;;;10622680;27;20069;-64
2022/03/05 10:49:18;;;;;;;25.05;7.95;;;;;;;;;;10623906;27;20087;-64
2022/03/05 10:54:44;;;;;;;20.85;7.50;;;;;;;;;;10624491;27;20024;-64
2022/03/05 10:59:50;;;;;;;20.55;7.22;;;;;;;;;;10619578;27;20036;-64
2022/03/05 11:04:51;;;;;;;24.27;8.13;;;;;;;;;;10623986;27;20063;-63
2022/03/05 11:09:54;;;;;;;19.02;6.78;;;;;;;;;;10623201;27;20482;-64
2022/03/05 11:14:54;;;;;;;10.98;6.53;;;;;;;;;;10623706;27;20177;-64
2022/03/05 11:19:55;;;;;;;15.50;7.00;;;;;;;;;;10622417;27;20178;-64
2022/03/05 11:24:56;;;;;;;22.98;6.72;;;;;;;;;;10619579;27;20031;-64
2022/03/05 11:30:03;;;;;;;15.30;5.77;;;;;;;;;;10619755;27;20489;-64
2022/03/05 11:35:18;;;;;;;19.50;6.78;;;;;;;;;;10604034;27;20512;-64
2022/03/05 11:40:37;;;;;;;13.02;6.72;;;;;;;;;;10621899;27;20035;-64
2022/03/05 11:45:38;;;;;;;13.63;6.60;;;;;;;;;;10622351;27;20031;-64
2022/03/05 11:50:49;;;;;;;10.15;6.18;;;;;;;;;;10621691;27;20088;-64
2022/03/05 11:55:49;;;;;;;15.32;6.68;;;;;;;;;;10620408;27;20030;-64
2022/03/05 12:00:52;;;;;;;15.75;6.65;;;;;;;;;;10620381;27;20031;-64
2022/03/05 12:05:53;;;;;;;11.45;6.57;;;;;;;;;;10618797;27;20072;-64
2022/03/05 12:11:20;;;;;;;12.23;6.65;;;;;;;;;;10619840;27;20490;-64
2022/03/05 12:16:28;;;;;;;12.75;6.50;;;;;;;;;;10616637;27;20383;-64
2022/03/05 12:21:31;;;;;;;13.98;7.35;;;;;;;;;;10619600;27;20478;-64
2022/03/05 12:26:40;;;;;;;9.52;5.85;;;;;;;;;;10619763;27;20360;-64
2022/03/05 12:31:41;;;;;;;;;;;;;;;;;;10616206;27;20023;-64
2022/03/05 12:36:43;;;;;;;17.70;6.18;;;;;;;;;;10616036;27;19911;-65
2022/03/05 12:41:45;;;;;;;12.00;5.90;;;;;;;;;;10619741;27;20028;-65
2022/03/05 12:46:45;;;;;;;13.77;5.97;;;;;;;;;;10618507;27;20083;-64
2022/03/05 12:51:46;;;;;;;12.00;5.90;;;;;;;;;;10616566;27;20384;-64
2022/03/05 12:56:46;;;;;;;8.17;5.37;;;;;;;;;;10617702;27;20499;-65
2022/03/05 13:01:48;;;;;;;13.83;6.07;;;;;;;;;;10618277;27;20520;-65
2022/03/05 13:06:48;;;;;;;13.02;5.38;;;;;;;;;;10619059;27;20447;-65
2022/03/05 13:11:49;;;;;;;8.52;5.93;;;;;;;;;;10618994;27;20374;-65
2022/03/05 13:16:51;;;;;;;7.93;5.50;;;;;;;;;;10618238;27;20023;-65
2022/03/05 13:21:53;;;;;;;8.93;5.35;;;;;;;;;;10618239;27;20113;-64
2022/03/05 13:26:55;;;;;;;11.95;5.50;;;;;;;;;;10618124;27;20023;-65
2022/03/05 13:31:59;;;;;;;11.93;5.60;;;;;;;;;;10618585;27;20071;-65
2022/03/05 13:37:07;;;;;;;10.05;5.55;;;;;;;;;;10615404;27;20176;-65
2022/03/05 13:42:12;;;;;;;10.73;4.90;;;;;;;;;;10614704;27;20027;-64
2022/03/05 13:47:14;;;;;;;7.90;5.20;;;;;;;;;;10629920;27;20470;-64
2022/03/05 13:52:17;;;;;;;8.32;4.80;;;;;;;;;;10632122;27;20031;-65
2022/03/05 13:57:32;;;;;;;8.88;5.45;;;;;;;;;;10631995;27;20023;-63
2022/03/05 14:02:33;;;;;;;8.57;5.15;;;;;;;;;;10631677;27;20024;-63
2022/03/05 14:07:38;;;;;;;7.97;4.93;;;;;;;;;;10631187;27;20027;-64
2022/03/05 14:12:38;;;;;;;9.43;4.82;;;;;;;;;;10613241;27;20027;-64
2022/03/05 14:17:40;;;;;;;8.57;4.82;;;;;;;;;;10631297;27;20055;-64
2022/03/05 14:23:03;;;;;;;7.65;4.90;;;;;;;;;;10631065;27;20031;-64
2022/03/05 14:28:10;;;;;;;8.15;4.55;;;;;;;;;;10631429;27;20114;-63
2022/03/05 14:33:10;;;;;;;8.38;4.10;;;;;;;;;;10630543;27;20027;-64
2022/03/05 14:38:11;;;;;;;13.10;5.00;;;;;;;;;;10630266;27;20042;-63
2022/03/05 14:43:12;;;;;;;9.65;4.70;;;;;;;;;;10626951;27;20031;-64
2022/03/05 14:48:13;;;;;;;13.77;4.80;;;;;;;;;;10630381;27;20023;-64
2022/03/05 14:53:13;;;;;;;10.67;4.57;;;;;;;;;;10626814;27;20026;-64
2022/03/05 14:58:13;;;;;;;6.83;4.43;;;;;;;;;;10624165;27;20462;-64
2022/03/05 15:03:14;;;;;;;6.23;4.63;;;;;;;;;;10623487;27;20056;-64
2022/03/05 15:08:14;;;;;;;10.40;4.70;;;;;;;;;;10622910;27;20119;-64
2022/03/05 15:13:15;;;;;;;10.03;4.57;;;;;;;;;;10623126;27;20023;-64
2022/03/05 15:18:15;;;;;;;7.97;4.47;;;;;;;;;;10622296;27;20444;-64
2022/03/05 15:23:15;;;;;;;10.07;4.00;;;;;;;;;;10621753;27;20071;-65
2022/03/05 15:28:16;;;;;;;8.27;4.50;;;;;;;;;;10621644;27;20110;-64
2022/03/05 15:33:16;;;;;;;9.70;4.53;;;;;;;;;;10621881;27;20019;-65
2022/03/05 15:38:17;;;;;;;9.35;4.40;;;;;;;;;;10621249;27;20039;-66
2022/03/05 15:43:20;;;;;;;7.07;4.13;;;;;;;;;;10621671;27;20106;-65
2022/03/05 15:48:20;;;;;;;9.85;4.05;;;;;;;;;;10621285;27;20102;-65
2022/03/05 15:53:20;;;;;;;6.65;4.15;;;;;;;;;;10618172;27;20535;-64
2022/03/05 15:58:21;;;;;;;7.72;4.28;;;;;;;;;;10618247;27;20047;-64
2022/03/05 16:03:22;;;;;;;7.27;3.97;;;;;;;;;;10621394;27;20083;-64
2022/03/05 16:08:23;;;;;;;5.47;4.03;;;;;;;;;;10619802;27;20452;-63
2022/03/05 16:13:23;;;;;;;5.97;3.92;;;;;;;;;;10620551;27;20049;-64
2022/03/05 16:18:24;;;;;;;6.88;4.18;;;;;;;;;;10620528;27;20084;-64
2022/03/05 16:23:24;;;;;;;12.20;4.10;;;;;;;;;;10619872;27;20091;-63
2022/03/05 16:28:24;;;;;;;6.30;4.20;;;;;;;;;;10619298;27;20864;-64
2022/03/05 16:33:25;;;;;;;5.30;3.57;;;;;;;;;;10601509;27;20459;-65
2022/03/05 16:38:25;;;;;;;8.07;4.20;;;;;;;;;;10619362;27;20451;-65
2022/03/05 16:43:26;;;;;;;5.90;4.20;;;;;;;;;;10619636;27;20466;-64
2022/03/05 16:48:26;;;;;;;9.82;4.85;;;;;;;;;;10619890;27;20436;-63
2022/03/05 16:53:32;;;;;;;16.07;5.40;;;;;;;;;;10619868;27;20050;-63
2022/03/05 16:58:33;;;;;;;16.42;5.35;;;;;;;;;;10616285;27;20893;-63
2022/03/05 17:03:35;;;;;;;9.75;4.50;;;;;;;;;;10618969;27;20059;-63
2022/03/05 17:08:36;;;;;;;12.32;4.50;;;;;;;;;;10615674;27;20334;-63
2022/03/05 17:13:36;;;;;;;8.85;4.75;;;;;;;;;;10619091;27;20019;-63
2022/03/05 17:18:37;;;;;;;11.55;4.70;;;;;;;;;;10618622;27;20612;-65
2022/03/05 17:23:37;;;;;;;12.70;4.80;;;;;;;;;;10618321;27;20091;-62
2022/03/05 17:28:38;;;;;;;10.93;4.80;;;;;;;;;;10617645;27;20435;-63
2022/03/05 17:33:39;;;;;;;10.65;4.97;;;;;;;;;;10618232;27;20027;-64
2022/03/05 17:38:39;;;;;;;13.82;4.30;;;;;;;;;;10617346;27;20043;-60
2022/03/05 17:43:40;;;;;;;16.90;5.28;;;;;;;;;;10617521;27;20386;-60
2022/03/05 17:48:40;;;;;;;13.80;4.72;;;;;;;;;;10617524;27;20035;-61
2022/03/05 17:53:41;;;;;;;8.97;4.60;;;;;;;;;;10616900;28;20363;-61
2022/03/05 17:58:41;;;;;;;11.00;4.88;;;;;;;;;;10618097;27;20539;-60
2022/03/05 18:03:42;;;;;;;11.20;4.90;;;;;;;;;;10599103;28;20033;-60
2022/03/05 18:08:42;;;;;;;22.50;5.03;;;;;;;;;;10613839;27;20751;-61
2022/03/05 18:13:43;;;;;;;6.73;4.67;;;;;;;;;;10617509;28;20436;-59
2022/03/05 18:18:43;;;;;;;11.88;4.43;;;;;;;;;;10612570;27;20436;-60
2022/03/05 18:23:43;;;;;;;12.23;4.90;;;;;;;;;;10616053;28;20027;-60
2022/03/05 18:28:44;;;;;;;9.77;5.07;;;;;;;;;;10615973;27;20467;-60
2022/03/05 18:33:45;;;;;;;9.93;4.67;;;;;;;;;;10623095;27;20519;-61
2022/03/05 18:38:45;;;;;;;7.38;4.78;;;;;;;;;;10624380;27;20467;-61
2022/03/05 18:43:46;;;;;;;11.47;4.40;;;;;;;;;;10624612;27;20106;-60
2022/03/05 18:48:46;;;;;;;8.38;5.15;;;;;;;;;;10624193;27;20489;-61
2022/03/05 18:53:48;;;;;;;18.67;5.97;;;;;;;;;;10623657;27;20023;-60
2022/03/05 18:58:49;;;;;;;20.63;5.50;;;;;;;;;;10623936;27;21001;-60
2022/03/05 19:03:49;;;;;;;13.52;5.15;;;;;;;;;;10604926;27;20027;-61
2022/03/05 19:08:50;;;;;;;12.30;5.55;;;;;;;;;;10623358;27;20107;-60
2022/03/05 19:13:50;;;;;;;14.83;5.33;;;;;;;;;;10623313;27;20023;-61
2022/03/05 19:18:51;;;;;;;11.82;4.82;;;;;;;;;;10619448;27;20435;-61
2022/03/05 19:23:51;;;;;;;15.10;5.63;;;;;;;;;;10619413;27;20516;-61
2022/03/05 19:28:52;;;;;;;13.05;4.75;;;;;;;;;;10622270;27;20019;-61
2022/03/05 19:33:52;;;;;;;19.85;6.05;;;;;;;;;;10623269;27;20027;-61
2022/03/05 19:38:53;;;;;;;12.90;5.30;;;;;;;;;;10622341;27;20492;-61
2022/03/05 19:43:54;;;;;;;8.85;4.97;;;;;;;;;;10621991;27;20540;-60
2022/03/05 19:48:54;;;;;;;9.97;4.60;;;;;;;;;;10621651;27;20432;-60
2022/03/05 19:53:54;;;;;;;8.60;4.35;;;;;;;;;;10622026;27;20443;-61
2022/03/05 19:58:55;;;;;;;19.10;5.70;;;;;;;;;;10620861;27;20028;-60
2022/03/05 20:03:55;;;;;;;14.37;5.40;;;;;;;;;;10620322;27;20475;-61
2022/03/05 20:08:55;;;;;;;11.23;5.27;;;;;;;;;;10618545;27;20538;-60
2022/03/05 20:13:56;;;;;;;15.07;5.37;;;;;;;;;;10618728;27;20416;-61
2022/03/05 20:18:56;;;;;;;17.37;6.27;;;;;;;;;;10617956;27;20046;-62
2022/03/05 20:23:57;;;;;;;11.13;5.60;;;;;;;;;;10614841;27;20023;-61
2022/03/05 20:28:57;;;;;;;8.63;4.67;;;;;;;;;;10614905;27;20508;-61
2022/03/05 20:33:57;;;;;;;15.17;5.07;;;;;;;;;;10617081;27;20019;-61
2022/03/05 20:38:58;;;;;;;9.10;4.67;;;;;;;;;;10614791;27;20467;-61
2022/03/05 20:44:00;;;;;;;10.57;4.60;;;;;;;;;;10618030;27;20049;-61
2022/03/05 20:49:00;;;;;;;11.30;4.72;;;;;;;;;;10616629;27;20415;-61
2022/03/05 20:54:01;;;;;;;7.25;4.28;;;;;;;;;;10617914;27;20015;-61
2022/03/05 20:59:01;;;;;;;10.95;4.80;;;;;;;;;;10619273;27;20031;-61
2022/03/05 21:04:02;;;;;;;11.50;4.73;;;;;;;;;;10618374;27;20031;-60
2022/03/05 21:09:03;;;;;;;8.52;4.32;;;;;;;;;;10600387;27;20666;-61
2022/03/05 21:14:03;;;;;;;10.43;4.60;;;;;;;;;;10618675;27;20127;-60
2022/03/05 21:19:03;;;;;;;10.73;4.80;;;;;;;;;;10618439;27;20035;-61
2022/03/05 21:24:04;;;;;;;9.13;4.55;;;;;;;;;;10618452;27;20462;-61
2022/03/05 21:29:04;;;;;;;7.57;4.40;;;;;;;;;;10614365;27;20034;-61
2022/03/05 21:34:05;;;;;;;5.75;3.97;;;;;;;;;;10614947;27;20035;-61
2022/03/05 21:39:06;;;;;;;5.53;4.53;;;;;;;;;;10617802;27;20369;-61
2022/03/05 21:44:07;;;;;;;6.18;4.30;;;;;;;;;;10618247;27;20825;-61
2022/03/05 21:49:07;;;;;;;10.23;4.78;;;;;;;;;;10617723;27;20030;-61
2022/03/05 21:54:08;;;;;;;7.93;4.60;;;;;;;;;;10617953;28;20035;-61
2022/03/05 21:59:08;;;;;;;11.02;4.20;;;;;;;;;;10617640;27;20029;-61
2022/03/05 22:04:09;;;;;;;9.25;4.20;;;;;;;;;;10618477;27;20296;-61
2022/03/05 22:09:10;;;;;;;8.73;4.55;;;;;;;;;;10626090;27;20019;-61
2022/03/05 22:14:10;;;;;;;6.90;4.05;;;;;;;;;;10625015;27;20027;-61
2022/03/05 22:19:11;;;;;;;5.97;4.37;;;;;;;;;;10624412;27;20062;-61
2022/03/05 22:24:11;;;;;;;9.40;4.77;;;;;;;;;;10624944;27;20447;-61
2022/03/05 22:29:12;;;;;;;6.47;3.92;;;;;;;;;;10625076;27;20102;-61
2022/03/05 22:34:12;;;;;;;8.40;4.03;;;;;;;;;;10621487;27;20530;-61
2022/03/05 22:39:12;;;;;;;7.50;4.60;;;;;;;;;;10623770;27;20467;-61
2022/03/05 22:44:13;;;;;;;6.83;4.00;;;;;;;;;;10620900;27;20456;-61
2022/03/05 22:49:13;;;;;;;6.57;4.00;;;;;;;;;;10624469;27;20015;-65
2022/03/05 22:54:14;;;;;;;7.90;4.85;;;;;;;;;;10624024;27;20033;-62
2022/03/05 22:59:14;;;;;;;11.63;4.23;;;;;;;;;;10623953;27;20409;-62
2022/03/05 23:04:17;;;;;;;7.17;4.50;;;;;;;;;;10623629;27;20031;-62
2022/03/05 23:09:29;;;;;;;8.18;4.63;;;;;;;;;;10623880;27;20658;-62
2022/03/05 23:14:30;;;;;;;9.48;4.43;;;;;;;;;;10622938;27;20098;-62
2022/03/05 23:19:31;;;;;;;7.18;4.72;;;;;;;;;;10622101;27;20113;-62
2022/03/05 23:24:31;;;;;;;13.57;4.80;;;;;;;;;;10621621;27;20442;-61
2022/03/05 23:29:31;;;;;;;8.63;4.87;;;;;;;;;;10621504;27;20030;-62
2022/03/05 23:34:32;;;;;;;6.55;4.95;;;;;;;;;;10601943;27;20568;-63
2022/03/05 23:39:32;;;;;;;9.88;5.10;;;;;;;;;;10618779;27;20035;-69
2022/03/05 23:44:34;;;;;;;8.30;4.93;;;;;;;;;;10611691;27;20039;-62
2022/03/05 23:49:35;;;;;;;6.90;5.10;;;;;;;;;;10620369;27;20031;-61
2022/03/05 23:54:35;;;;;;;10.93;5.65;;;;;;;;;;10621296;27;20462;-61
2022/03/05 23:59:35;;;;;;;13.07;5.20;;;;;;;;;;10620508;27;20106;-60
